Time;durP1;ratioP1;P1;durP2;ratioP2;P2;SDS_P1;SDS_P2;PMS_P1;PMS_P2;Temp;Humidity;BMP_temperature;BMP_pressure;BME280_temperature;BME280_humidity;BME280_pressure;Samples;Min_cycle;Max_cycle;Signal;HPM_P1;HPM_P2
2022/03/16 00:00:08;;;;;;;25.07;19.00;;;;;;;7.63;100.00;153318.94;5032614;28;20874;-80
2022/03/16 00:02:48;;;;;;;23.73;18.50;;;;;;;7.62;100.00;153316.41;5045440;28;20447;-80
2022/03/16 00:05:24;;;;;;;27.53;19.70;;;;;;;7.61;100.00;153313.78;5036178;28;20458;-79
2022/03/16 00:07:59;;;;;;;25.60;19.73;;;;;;;7.62;100.00;153316.41;5011251;28;20551;-80
2022/03/16 00:10:35;;;;;;;28.00;19.80;;;;;;;7.58;100.00;153307.34;5029401;28;20557;-80
2022/03/16 00:13:11;;;;;;;25.37;19.30;;;;;;;7.61;100.00;153313.78;5029936;28;20443;-79
2022/03/16 00:15:48;;;;;;;25.00;20.67;;;;;;;7.59;100.00;153308.63;5008569;28;20447;-80
2022/03/16 00:18:23;;;;;;;25.67;20.07;;;;;;;7.59;100.00;153309.94;5034109;28;20463;-79
2022/03/16 00:20:59;;;;;;;30.60;22.50;;;;;;;7.61;100.00;153313.78;5028863;28;20459;-79
2022/03/16 00:23:35;;;;;;;27.10;20.93;;;;;;;7.60;100.00;153311.25;5026608;28;20912;-80
2022/03/16 00:26:11;;;;;;;26.27;21.70;;;;;;;7.56;100.00;153302.19;5033203;28;20455;-80
2022/03/16 00:28:46;;;;;;;30.87;22.33;;;;;;;7.57;100.00;153304.72;5012944;28;20459;-80
2022/03/16 00:31:23;;;;;;;26.80;20.97;;;;;;;7.51;100.00;153289.28;5030406;28;20447;-80
2022/03/16 00:33:59;;;;;;;32.37;22.33;;;;;;;7.49;100.00;153284.13;5030056;28;21007;-80
2022/03/16 00:36:34;;;;;;;28.47;22.73;;;;;;;7.46;100.00;153275.06;5030683;28;20935;-80
2022/03/16 00:39:10;;;;;;;31.30;23.77;;;;;;;7.46;100.00;153275.06;5011056;28;20440;-80
2022/03/16 00:41:46;;;;;;;30.20;22.80;;;;;;;7.51;100.00;153289.28;4999401;28;20993;-80
2022/03/16 00:44:21;;;;;;;26.83;21.27;;;;;;;7.48;100.00;153280.22;5032988;28;20439;-79
2022/03/16 00:46:58;;;;;;;28.83;21.33;;;;;;;7.54;100.00;153295.72;5029436;28;20474;-80
2022/03/16 00:49:34;;;;;;;33.33;22.60;;;;;;;7.52;100.00;153290.56;5029151;28;20458;-80
2022/03/16 00:52:10;;;;;;;32.63;22.87;;;;;;;7.49;100.00;153284.13;5000070;28;20534;-79
2022/03/16 00:54:45;;;;;;;31.40;24.43;;;;;;;7.51;100.00;153289.28;5039310;28;20557;-80
2022/03/16 00:57:21;;;;;;;30.87;23.10;;;;;;;7.51;100.00;153289.28;5011124;28;20953;-79
2022/03/16 00:59:58;;;;;;;29.80;23.57;;;;;;;7.48;100.00;153280.22;5029629;28;20463;-80
2022/03/16 01:02:36;;;;;;;34.03;24.40;;;;;;;7.48;100.00;153281.50;5036177;28;20576;-80
2022/03/16 01:05:12;;;;;;;34.80;24.40;;;;;;;7.44;100.00;153271.16;5010740;28;20464;-79
2022/03/16 01:07:48;;;;;;;35.63;24.40;;;;;;;7.49;100.00;153282.81;5042313;28;20540;-80
2022/03/16 01:10:24;;;;;;;36.17;26.80;;;;;;;7.49;100.00;153284.13;5023566;28;20681;-80
2022/03/16 01:13:00;;;;;;;31.97;24.37;;;;;;;7.49;100.00;153282.81;5011471;28;20443;-81
2022/03/16 01:15:36;;;;;;;32.13;23.40;;;;;;;7.47;100.00;153277.63;5029010;28;20447;-80
2022/03/16 01:18:13;;;;;;;33.13;22.90;;;;;;;7.48;100.00;153281.50;5031923;28;20439;-80
2022/03/16 01:20:48;;;;;;;32.40;25.27;;;;;;;7.50;100.00;153285.38;5011285;28;20474;-80
2022/03/16 01:23:23;;;;;;;33.77;25.20;;;;;;;7.47;100.00;153277.63;5032817;28;20535;-80
2022/03/16 01:25:59;;;;;;;36.50;25.73;;;;;;;7.43;100.00;153267.31;5018297;28;20491;-80
2022/03/16 01:28:35;;;;;;;36.03;26.13;;;;;;;7.48;100.00;153280.22;5015026;28;20878;-80
2022/03/16 01:31:11;;;;;;;37.10;26.83;;;;;;;7.48;100.00;153280.22;5008294;28;20453;-80
2022/03/16 01:33:48;;;;;;;33.97;26.10;;;;;;;7.49;100.00;153282.81;5028968;28;20667;-80
2022/03/16 01:36:25;;;;;;;42.30;28.20;;;;;;;7.47;100.00;153277.63;5025956;28;20447;-80
2022/03/16 01:39:01;;;;;;;36.50;25.37;;;;;;;7.49;100.00;153284.13;5028500;28;20816;-80
2022/03/16 01:41:36;;;;;;;37.27;24.80;;;;;;;7.58;100.00;153306.03;5033431;28;20475;-80
2022/03/16 01:44:12;;;;;;;37.30;26.37;;;;;;;7.56;100.00;153302.19;5028190;28;21164;-80
2022/03/16 01:46:47;;;;;;;33.97;24.37;;;;;;;7.55;100.00;153299.59;5033217;28;20549;-80
2022/03/16 01:49:24;;;;;;;35.87;24.57;;;;;;;7.55;100.00;153299.59;5013653;28;20443;-80
2022/03/16 01:52:00;;;;;;;36.07;25.70;;;;;;;7.52;100.00;153290.56;5031030;28;20432;-80
2022/03/16 01:54:36;;;;;;;34.67;25.20;;;;;;;7.51;100.00;153287.97;5011970;28;20513;-80
2022/03/16 01:57:12;;;;;;;40.00;27.70;;;;;;;7.49;100.00;153282.81;4998811;28;20460;-80
2022/03/16 01:59:48;;;;;;;43.10;27.07;;;;;;;7.53;100.00;153294.44;5034193;28;20554;-80
2022/03/16 02:02:24;;;;;;;39.80;28.43;;;;;;;7.53;100.00;153293.13;4991846;28;20436;-79
2022/03/16 02:05:01;;;;;;;37.90;28.20;;;;;;;7.53;100.00;153294.44;5025709;28;20975;-80
2022/03/16 02:07:37;;;;;;;38.47;25.70;;;;;;;7.58;100.00;153306.03;5012044;28;20970;-80
2022/03/16 02:10:13;;;;;;;41.30;25.97;;;;;;;7.63;100.00;153318.94;5027248;28;20850;-80
2022/03/16 02:12:50;;;;;;;37.00;26.37;;;;;;;7.63;100.00;153320.25;5029162;28;21164;-80
2022/03/16 02:15:25;;;;;;;38.00;26.07;;;;;;;7.69;100.00;153334.47;5028901;28;20470;-80
2022/03/16 02:18:01;;;;;;;39.83;26.23;;;;;;;7.68;100.00;153331.84;5031761;28;20439;-79
2022/03/16 02:20:38;;;;;;;37.90;26.53;;;;;;;7.66;100.00;153328.00;5005999;28;20573;-80
2022/03/16 02:23:14;;;;;;;33.83;25.07;;;;;;;7.63;100.00;153318.94;5013047;28;20448;-80
2022/03/16 02:25:52;;;;;;;34.40;25.53;;;;;;;7.63;100.00;153318.94;5027086;28;20488;-80
2022/03/16 02:28:27;;;;;;;43.57;28.27;;;;;;;7.65;100.00;153325.41;5031812;28;20447;-80
2022/03/16 02:31:03;;;;;;;38.40;27.50;;;;;;;7.64;100.00;153322.84;5040009;28;20451;-80
2022/03/16 02:33:39;;;;;;;41.10;26.90;;;;;;;7.68;100.00;153331.84;5028289;28;20531;-80
2022/03/16 02:36:14;;;;;;;39.23;26.00;;;;;;;7.62;100.00;153317.69;5011663;28;20778;-80
2022/03/16 02:38:51;;;;;;;38.53;27.47;;;;;;;7.61;100.00;153315.09;5026123;28;20440;-80
2022/03/16 02:41:27;;;;;;;44.70;29.47;;;;;;;7.58;100.00;153306.03;5027440;28;20468;-80
2022/03/16 02:44:03;;;;;;;45.70;29.77;;;;;;;7.60;100.00;153311.25;5011736;28;20447;-80
2022/03/16 02:46:38;;;;;;;44.23;27.40;;;;;;;7.61;100.00;153313.78;5011030;28;20510;-80
2022/03/16 02:49:14;;;;;;;39.90;28.10;;;;;;;7.60;100.00;153311.25;5011844;28;20454;-80
2022/03/16 02:51:49;;;;;;;42.13;29.47;;;;;;;7.57;100.00;153303.47;5011306;28;20954;-80
2022/03/16 02:54:26;;;;;;;40.57;27.87;;;;;;;7.52;100.00;153290.56;5030608;28;20977;-80
2022/03/16 02:57:01;;;;;;;40.50;28.30;;;;;;;7.54;100.00;153295.72;5038978;28;20954;-80
2022/03/16 02:59:37;;;;;;;43.80;29.33;;;;;;;7.55;100.00;153298.28;5012214;28;20467;-80
2022/03/16 03:02:13;;;;;;;40.10;27.97;;;;;;;7.57;100.00;153303.47;5029177;28;20486;-80
2022/03/16 03:04:48;;;;;;;45.77;30.50;;;;;;;7.55;100.00;153298.28;5030304;28;20455;-80
2022/03/16 03:07:24;;;;;;;41.30;29.60;;;;;;;7.54;100.00;153295.72;5016504;28;20440;-80
2022/03/16 03:10:01;;;;;;;44.57;29.30;;;;;;;7.55;100.00;153298.28;5009628;28;20471;-80
2022/03/16 03:12:37;;;;;;;42.50;29.47;;;;;;;7.56;100.00;153302.19;5013678;28;20811;-80
2022/03/16 03:15:13;;;;;;;43.63;27.63;;;;;;;7.56;100.00;153300.88;5011967;28;20459;-80
2022/03/16 03:17:48;;;;;;;40.20;27.50;;;;;;;7.61;100.00;153313.78;5031374;28;20447;-80
2022/03/16 03:20:24;;;;;;;42.47;28.00;;;;;;;7.51;100.00;153287.97;5030417;28;20447;-80
2022/03/16 03:23:00;;;;;;;46.27;27.90;;;;;;;7.50;100.00;153285.38;5012620;28;20460;-80
2022/03/16 03:25:37;;;;;;;43.33;30.53;;;;;;;7.54;100.00;153297.03;5033095;28;20452;-80
2022/03/16 03:28:14;;;;;;;67.67;30.27;;;;;;;7.50;100.00;153285.38;5010115;28;20451;-80
2022/03/16 03:30:50;;;;;;;47.53;29.97;;;;;;;7.51;100.00;153289.28;5018234;28;20452;-80
2022/03/16 03:33:25;;;;;;;61.33;30.33;;;;;;;7.50;100.00;153286.66;5011862;28;20455;-80
2022/03/16 03:36:01;;;;;;;47.70;29.07;;;;;;;7.51;100.00;153289.28;5022307;28;20455;-80
2022/03/16 03:38:37;;;;;;;44.40;28.40;;;;;;;7.52;100.00;153290.56;5026956;28;20455;-78
2022/03/16 03:41:14;;;;;;;41.50;28.30;;;;;;;7.49;100.00;153284.13;5030715;28;20848;-78
2022/03/16 03:43:49;;;;;;;41.60;29.07;;;;;;;7.52;100.00;153290.56;5037753;28;20444;-78
2022/03/16 03:46:25;;;;;;;40.20;26.80;;;;;;;7.55;100.00;153298.28;5028089;28;20478;-78
2022/03/16 03:49:00;;;;;;;42.13;29.37;;;;;;;7.57;100.00;153303.47;5027164;28;20450;-78
2022/03/16 03:51:36;;;;;;;41.93;29.67;;;;;;;7.58;100.00;153306.03;5027426;28;20455;-78
2022/03/16 03:54:11;;;;;;;45.00;30.20;;;;;;;7.63;100.00;153318.94;5008872;28;20451;-78
2022/03/16 03:56:48;;;;;;;43.93;27.57;;;;;;;7.64;100.00;153321.56;5012898;28;20930;-79
2022/03/16 03:59:24;;;;;;;42.33;27.97;;;;;;;7.63;100.00;153320.25;5030715;28;20522;-78
2022/03/16 04:02:00;;;;;;;43.30;31.30;;;;;;;7.66;100.00;153326.72;5015307;28;20556;-79
2022/03/16 04:04:35;;;;;;;37.87;26.77;;;;;;;7.68;100.00;153333.16;4999836;28;20451;-78
2022/03/16 04:07:11;;;;;;;42.23;28.33;;;;;;;7.71;100.00;153339.63;5033027;28;20535;-79
2022/03/16 04:09:46;;;;;;;41.93;28.17;;;;;;;7.72;100.00;153342.22;5012917;28;20941;-79
2022/03/16 04:12:23;;;;;;;45.83;28.70;;;;;;;7.66;100.00;153328.00;5042227;28;20973;-78
2022/03/16 04:14:59;;;;;;;41.23;26.87;;;;;;;7.66;100.00;153326.72;5034654;28;20451;-81
2022/03/16 04:17:34;;;;;;;39.90;26.93;;;;;;;7.68;100.00;153331.84;5015584;28;20812;-78
2022/03/16 04:20:10;;;;;;;42.97;28.80;;;;;;;7.66;100.00;153328.00;5034210;28;20458;-78
2022/03/16 04:22:45;;;;;;;42.13;27.80;;;;;;;7.68;100.00;153333.16;5011410;28;20463;-79
2022/03/16 04:25:21;;;;;;;44.40;27.60;;;;;;;7.69;100.00;153335.75;5028772;28;20483;-78
2022/03/16 04:27:57;;;;;;;40.73;28.90;;;;;;;7.69;100.00;153335.75;4998915;28;20540;-80
2022/03/16 04:30:33;;;;;;;42.73;29.10;;;;;;;7.66;100.00;153326.72;5027706;28;20562;-80
2022/03/16 04:33:09;;;;;;;42.93;27.80;;;;;;;7.66;100.00;153326.72;5022553;28;20440;-80
2022/03/16 04:35:45;;;;;;;40.77;29.63;;;;;;;7.60;100.00;153312.50;5041724;28;20447;-79
2022/03/16 04:38:20;;;;;;;44.30;28.00;;;;;;;7.51;100.00;153287.97;5031944;28;20844;-80
2022/03/16 04:40:55;;;;;;;44.77;30.17;;;;;;;7.52;100.00;153291.81;5039297;28;20463;-80
2022/03/16 04:43:32;;;;;;;45.47;27.47;;;;;;;7.54;100.00;153295.72;4998837;28;20455;-79
2022/03/16 04:46:08;;;;;;;46.93;28.93;;;;;;;7.51;100.00;153287.97;5027741;28;20443;-79
2022/03/16 04:48:43;;;;;;;41.80;28.13;;;;;;;7.47;100.00;153277.63;4999375;28;20945;-79
2022/03/16 04:51:19;;;;;;;47.07;30.17;;;;;;;7.46;100.00;153276.34;5009556;28;20447;-79
2022/03/16 04:53:54;;;;;;;50.87;31.17;;;;;;;7.45;100.00;153272.47;5041978;28;20447;-80
2022/03/16 04:56:30;;;;;;;46.17;31.23;;;;;;;7.42;100.00;153264.69;5013036;28;20439;-79
2022/03/16 04:59:07;;;;;;;55.30;30.30;;;;;;;7.44;100.00;153269.91;5016720;28;20451;-79
2022/03/16 05:01:42;;;;;;;44.83;29.90;;;;;;;7.34;100.00;153246.63;5027303;28;20529;-79
2022/03/16 05:04:18;;;;;;;87.43;36.00;;;;;;;7.30;100.00;153236.34;5025073;28;20537;-79
2022/03/16 05:06:54;;;;;;;51.87;32.27;;;;;;;7.32;100.00;153241.47;5032745;28;20850;-79
2022/03/16 05:09:29;;;;;;;90.03;33.80;;;;;;;7.28;100.00;153229.88;5038022;28;20451;-79
2022/03/16 05:12:06;;;;;;;71.03;33.17;;;;;;;7.25;100.00;153223.38;5013402;28;20448;-79
2022/03/16 05:14:43;;;;;;;129.77;39.63;;;;;;;7.25;100.00;153223.38;5034705;28;20471;-79
2022/03/16 05:17:18;;;;;;;121.33;38.60;;;;;;;7.19;100.00;153207.91;5030573;28;20439;-80
2022/03/16 05:19:54;;;;;;;103.23;36.90;;;;;;;7.14;100.00;153193.72;5017111;28;20550;-79
2022/03/16 05:22:29;;;;;;;134.80;41.00;;;;;;;7.12;100.00;153189.81;5034048;28;20463;-79
2022/03/16 05:25:06;;;;;;;203.97;48.20;;;;;;;7.14;100.00;153193.72;5032319;28;20443;-79
2022/03/16 05:27:41;;;;;;;121.80;42.93;;;;;;;7.14;100.00;153195.00;5035163;28;20450;-80
2022/03/16 05:30:20;;;;;;;133.50;41.60;;;;;;;7.15;100.00;153196.25;5014557;28;20533;-80
2022/03/16 05:33:00;;;;;;;76.30;38.13;;;;;;;7.16;100.00;153200.16;5011055;28;20456;-80
2022/03/16 05:35:36;;;;;;;63.07;33.47;;;;;;;7.20;100.00;153209.22;5032426;28;20809;-80
2022/03/16 05:38:12;;;;;;;60.37;37.20;;;;;;;7.24;100.00;153220.81;5014395;28;20451;-79
2022/03/16 05:40:48;;;;;;;58.93;34.00;;;;;;;7.22;100.00;153215.66;5031151;28;20448;-80
2022/03/16 05:43:23;;;;;;;55.70;34.53;;;;;;;7.19;100.00;153207.91;5029298;28;20459;-80
2022/03/16 05:46:01;;;;;;;54.93;31.80;;;;;;;7.22;100.00;153214.38;5009918;28;20785;-78
2022/03/16 05:48:37;;;;;;;62.57;34.00;;;;;;;7.16;100.00;153200.16;5013192;28;20459;-81
2022/03/16 05:51:12;;;;;;;58.10;34.33;;;;;;;7.20;100.00;153210.47;5030095;28;20439;-80
2022/03/16 05:53:48;;;;;;;66.53;33.87;;;;;;;7.23;100.00;153216.91;5028895;28;20447;-80
2022/03/16 05:56:23;;;;;;;54.90;34.00;;;;;;;7.25;100.00;153222.13;5013405;28;20440;-80
2022/03/16 05:58:59;;;;;;;55.53;32.47;;;;;;;7.24;100.00;153219.53;5031798;28;20436;-79
2022/03/16 06:01:36;;;;;;;56.53;32.40;;;;;;;7.26;100.00;153225.97;5031319;28;20471;-80
2022/03/16 06:04:11;;;;;;;49.50;32.63;;;;;;;7.33;100.00;153242.78;5027227;28;20869;-79
2022/03/16 06:06:47;;;;;;;57.13;32.70;;;;;;;7.33;100.00;153244.03;5011428;28;20452;-79
2022/03/16 06:09:23;;;;;;;55.57;33.77;;;;;;;7.29;100.00;153233.72;5020707;28;20447;-79
2022/03/16 06:11:59;;;;;;;53.73;31.97;;;;;;;7.33;100.00;153242.78;5026641;28;20471;-80
2022/03/16 06:14:35;;;;;;;51.77;32.60;;;;;;;7.38;100.00;153254.41;5026717;28;20523;-80
2022/03/16 06:17:14;;;;;;;55.67;31.97;;;;;;;7.51;100.00;153289.28;5034158;28;20431;-80
2022/03/16 06:19:50;;;;;;;51.60;31.00;;;;;;;7.43;100.00;153267.31;5020371;28;20456;-80
2022/03/16 06:22:25;;;;;;;46.70;30.00;;;;;;;7.45;100.00;153272.47;5027917;28;20490;-79
2022/03/16 06:25:01;;;;;;;57.60;31.57;;;;;;;7.52;100.00;153291.81;5027581;28;20830;-79
2022/03/16 06:27:36;;;;;;;44.83;29.97;;;;;;;7.45;100.00;153273.75;5030151;28;20828;-79
2022/03/16 06:30:12;;;;;;;46.70;30.00;;;;;;;7.55;100.00;153298.28;5033900;28;20448;-80
2022/03/16 06:32:49;;;;;;;46.30;29.07;;;;;;;7.63;100.00;153318.94;5031148;28;20451;-79
2022/03/16 06:35:25;;;;;;;49.87;31.47;;;;;;;7.55;100.00;153298.28;5038253;28;20455;-80
2022/03/16 06:38:01;;;;;;;47.30;30.90;;;;;;;7.56;100.00;153300.88;5035213;28;20459;-79
2022/03/16 06:40:36;;;;;;;46.03;27.83;;;;;;;7.54;100.00;153297.03;5044110;28;20455;-79
2022/03/16 06:43:12;;;;;;;46.97;26.90;;;;;;;7.74;100.00;153347.38;5029180;28;20471;-80
2022/03/16 06:45:48;;;;;;;49.57;29.90;;;;;;;7.64;100.00;153322.84;5018860;28;20467;-79
2022/03/16 06:48:26;;;;;;;42.93;28.40;;;;;;;7.70;100.00;153338.38;5027241;28;20428;-79
2022/03/16 06:51:01;;;;;;;48.27;30.60;;;;;;;7.65;100.00;153324.16;5025201;28;20943;-79
2022/03/16 06:53:37;;;;;;;47.73;31.37;;;;;;;7.60;100.00;153312.50;5026244;28;20823;-79
2022/03/16 06:56:13;;;;;;;55.37;28.23;;;;;;;7.77;100.00;153355.13;5012211;28;20468;-79
2022/03/16 06:58:48;;;;;;;51.60;28.37;;;;;;;7.62;100.00;153316.41;5009692;28;20447;-79
2022/03/16 07:01:24;;;;;;;43.63;27.83;;;;;;;7.59;100.00;153309.94;5018810;28;20562;-79
2022/03/16 07:04:01;;;;;;;45.97;29.43;;;;;;;7.64;100.00;153321.56;5007636;28;20443;-79
2022/03/16 07:06:36;;;;;;;48.50;29.50;;;;;;;7.59;100.00;153308.63;5007623;28;20779;-79
2022/03/16 07:09:12;;;;;;;89.37;31.67;;;;;;;7.65;100.00;153325.41;5008831;28;20435;-79
2022/03/16 07:11:49;;;;;;;48.20;30.30;;;;;;;7.65;100.00;153324.16;5009327;28;20541;-79
2022/03/16 07:14:34;;;;;;;48.77;30.73;;;;;;;7.62;100.00;153317.69;5033615;28;20459;-79
2022/03/16 07:17:10;;;;;;;45.50;29.83;;;;;;;7.65;100.00;153324.16;5007275;28;20522;-79
2022/03/16 07:19:48;;;;;;;47.40;28.60;;;;;;;7.76;100.00;153352.53;5026916;28;20455;-79
2022/03/16 07:22:24;;;;;;;49.67;27.77;;;;;;;7.70;100.00;153337.06;5026682;28;20475;-79
2022/03/16 07:25:00;;;;;;;49.87;28.37;;;;;;;7.87;100.00;153380.97;5010759;28;20533;-79
2022/03/16 07:27:35;;;;;;;43.60;27.03;;;;;;;7.60;100.00;153311.25;5029690;28;20483;-79
2022/03/16 07:30:11;;;;;;;44.23;27.60;;;;;;;7.59;100.00;153308.63;5010265;28;20455;-79
2022/03/16 07:32:47;;;;;;;47.00;26.10;;;;;;;7.60;100.00;153311.25;4996124;28;20435;-79
2022/03/16 07:35:26;;;;;;;48.43;26.60;;;;;;;7.77;100.00;153355.13;5009615;28;21012;-79
2022/03/16 07:38:02;;;;;;;46.17;28.03;;;;;;;7.65;100.00;153325.41;5015305;28;20451;-80
2022/03/16 07:40:38;;;;;;;52.47;26.60;;;;;;;7.73;100.00;153344.81;4997626;28;20495;-80
2022/03/16 07:43:14;;;;;;;42.00;27.33;;;;;;;7.64;100.00;153321.56;5007859;28;20463;-80
2022/03/16 07:45:50;;;;;;;46.83;28.90;;;;;;;7.69;100.00;153334.47;5007839;28;20447;-80
2022/03/16 07:48:26;;;;;;;38.73;26.17;;;;;;;7.68;100.00;153331.84;4993408;28;20457;-80
2022/03/16 07:51:03;;;;;;;43.43;25.90;;;;;;;7.59;100.00;153309.94;5004167;28;20459;-80
2022/03/16 07:53:39;;;;;;;38.57;24.40;;;;;;;7.57;100.00;153303.47;5009045;28;20451;-80
2022/03/16 07:56:14;;;;;;;44.63;27.07;;;;;;;7.58;100.00;153306.03;5024309;28;20454;-79
2022/03/16 07:58:51;;;;;;;38.00;25.70;;;;;;;7.61;100.00;153315.09;4994078;28;20539;-79
2022/03/16 08:01:26;;;;;;;39.13;25.97;;;;;;;7.73;100.00;153344.81;5008625;28;20448;-80
2022/03/16 08:04:02;;;;;;;40.60;25.37;;;;;;;7.68;100.00;153331.84;4991087;28;20479;-80
2022/03/16 08:06:39;;;;;;;41.30;26.00;;;;;;;7.72;100.00;153343.53;5020964;28;20443;-79
2022/03/16 08:09:14;;;;;;;42.20;25.70;;;;;;;7.75;100.00;153351.28;5025085;28;20797;-80
2022/03/16 08:11:50;;;;;;;45.07;27.80;;;;;;;7.75;100.00;153349.97;5032141;28;20454;-80
2022/03/16 08:14:26;;;;;;;45.30;27.53;;;;;;;7.66;100.00;153326.72;5012115;28;20946;-79
2022/03/16 08:17:02;;;;;;;45.60;27.10;;;;;;;7.66;100.00;153328.00;5031522;28;20842;-79
2022/03/16 08:19:38;;;;;;;42.20;26.73;;;;;;;7.75;100.00;153349.97;5007259;28;20447;-79
2022/03/16 08:22:24;;;;;;;45.30;26.90;;;;;;;7.67;100.00;153329.31;5008687;28;20460;-79
2022/03/16 08:25:02;;;;;;;40.17;26.40;;;;;;;7.74;100.00;153347.38;5029341;28;20913;-79
2022/03/16 08:27:38;;;;;;;42.37;25.93;;;;;;;7.62;100.00;153317.69;5022728;28;20479;-80
2022/03/16 08:30:13;;;;;;;40.00;25.53;;;;;;;7.64;100.00;153321.56;5019895;28;20464;-80
2022/03/16 08:32:49;;;;;;;46.90;27.27;;;;;;;7.58;100.00;153306.03;5020645;28;20450;-80
2022/03/16 08:35:25;;;;;;;44.27;29.77;;;;;;;7.61;100.00;153313.78;5026719;28;20824;-79
2022/03/16 08:38:02;;;;;;;42.97;28.93;;;;;;;7.59;100.00;153308.63;5007636;28;20546;-79
2022/03/16 08:40:38;;;;;;;43.40;27.50;;;;;;;7.62;100.00;153316.41;5024991;28;20451;-80
2022/03/16 08:43:13;;;;;;;45.63;26.53;;;;;;;7.61;100.00;153313.78;5030055;28;20470;-80
2022/03/16 08:45:49;;;;;;;45.90;28.90;;;;;;;7.66;100.00;153326.72;5029296;28;20712;-80
2022/03/16 08:48:24;;;;;;;43.67;26.67;;;;;;;7.67;100.00;153330.59;5044014;28;20448;-80
2022/03/16 08:51:02;;;;;;;42.37;26.40;;;;;;;7.76;100.00;153353.84;5031216;28;20845;-80
2022/03/16 08:53:39;;;;;;;38.73;25.57;;;;;;;7.84;100.00;153373.19;5009896;28;20444;-80
2022/03/16 08:56:15;;;;;;;38.53;25.03;;;;;;;8.00;100.00;153414.53;5015896;28;20460;-80
2022/03/16 08:58:51;;;;;;;41.07;24.97;;;;;;;7.92;100.00;153395.19;5012308;28;20435;-80
2022/03/16 09:01:26;;;;;;;37.90;26.70;;;;;;;7.90;100.00;153388.72;5026504;28;20459;-81
2022/03/16 09:04:02;;;;;;;37.67;23.73;;;;;;;7.93;100.00;153396.47;5011798;28;20494;-80
2022/03/16 09:06:38;;;;;;;36.57;24.17;;;;;;;7.82;100.00;153368.03;5027071;28;20442;-80
2022/03/16 09:09:15;;;;;;;41.00;24.63;;;;;;;7.94;100.00;153399.09;5034050;28;20474;-81
2022/03/16 09:11:50;;;;;;;37.10;22.00;;;;;;;7.95;100.00;153402.94;5029480;28;20451;-80
2022/03/16 09:14:26;;;;;;;32.87;22.67;;;;;;;7.93;100.00;153396.47;5036868;28;20797;-80
2022/03/16 09:17:01;;;;;;;33.90;21.87;;;;;;;7.83;100.00;153371.94;5010912;28;20522;-81
2022/03/16 09:19:37;;;;;;;37.33;22.40;;;;;;;7.94;100.00;153400.34;5014487;28;20981;-80
2022/03/16 09:22:13;;;;;;;32.53;21.10;;;;;;;7.85;100.00;153375.81;5013013;28;20448;-80
2022/03/16 09:24:50;;;;;;;32.07;23.47;;;;;;;7.77;100.00;153355.13;5028764;28;20451;-80
2022/03/16 09:27:26;;;;;;;31.00;22.00;;;;;;;7.73;100.00;153344.81;5036831;28;20439;-80
2022/03/16 09:30:02;;;;;;;31.27;20.50;;;;;;;7.70;100.00;153337.06;5013838;28;20550;-80
2022/03/16 09:32:39;;;;;;;34.87;22.17;;;;;;;7.79;100.00;153360.28;5012327;28;20471;-80
2022/03/16 09:35:15;;;;;;;35.73;23.27;;;;;;;7.81;100.00;153365.50;5013854;28;20455;-80
2022/03/16 09:37:53;;;;;;;31.70;21.70;;;;;;;7.94;100.00;153400.34;5026369;28;20847;-80
2022/03/16 09:40:30;;;;;;;31.70;20.30;;;;;;;7.98;100.00;153409.41;5047014;28;20472;-81
2022/03/16 09:43:06;;;;;;;30.90;20.97;;;;;;;7.94;100.00;153400.34;5026808;28;20456;-80
2022/03/16 09:45:47;;;;;;;30.17;20.90;;;;;;;8.06;100.00;153430.06;5026663;28;20557;-80
2022/03/16 09:48:24;;;;;;;32.60;21.30;;;;;;;8.13;100.00;153448.13;5027863;28;20579;-81
2022/03/16 09:51:00;;;;;;;26.80;20.60;;;;;;;8.10;100.00;153440.38;5013831;28;20986;-80
2022/03/16 09:53:36;;;;;;;30.50;20.77;;;;;;;8.01;100.00;153415.84;5028296;28;20451;-81
2022/03/16 09:56:13;;;;;;;32.47;21.40;;;;;;;8.01;100.00;153415.84;5034422;28;20448;-80
2022/03/16 09:58:50;;;;;;;29.67;20.47;;;;;;;8.12;100.00;153445.59;4997430;28;20447;-80
2022/03/16 10:01:26;;;;;;;26.40;18.50;;;;;;;8.12;100.00;153445.59;5023654;28;20448;-81
2022/03/16 10:04:03;;;;;;;30.77;19.10;;;;;;;8.14;100.00;153450.75;5028724;28;20459;-80
2022/03/16 10:06:40;;;;;;;29.23;19.30;;;;;;;8.31;100.00;153494.72;5033322;28;20443;-80
2022/03/16 10:15:15;;;;;;;27.60;17.80;;;;;;;8.21;100.00;153468.81;5045408;28;21013;-82
2022/03/16 10:17:52;;;;;;;29.37;18.43;;;;;;;8.31;100.00;153494.72;5006312;28;20447;-80
2022/03/16 10:20:30;;;;;;;25.80;17.93;;;;;;;8.42;100.00;153523.16;5027211;28;20458;-80
2022/03/16 10:23:07;;;;;;;26.17;17.90;;;;;;;8.38;100.00;153512.84;5035691;28;20463;-81
2022/03/16 10:25:45;;;;;;;29.17;18.90;;;;;;;8.61;100.00;153569.69;5030839;28;21674;-81
2022/03/16 10:28:23;;;;;;;26.67;18.90;;;;;;;8.69;100.00;153590.38;5012028;28;20554;-81
2022/03/16 10:31:01;;;;;;;23.63;17.37;;;;;;;8.63;100.00;153576.13;5027081;28;20899;-80
2022/03/16 10:33:46;;;;;;;26.73;18.70;;;;;;;8.72;100.00;153599.44;5009038;28;20838;-80
2022/03/16 10:36:22;;;;;;;24.70;17.90;;;;;;;8.77;100.00;153612.34;5025774;28;20455;-81
2022/03/16 10:39:03;;;;;;;23.37;17.50;;;;;;;8.87;100.00;153638.22;5037081;28;20455;-81
2022/03/16 10:47:26;;;;;;;23.43;17.40;;;;;;;9.04;100.00;153682.19;5008236;28;20550;-80
2022/03/16 10:50:04;;;;;;;22.87;16.90;;;;;;;8.86;100.00;153634.34;5008906;28;20463;-79
2022/03/16 10:52:41;;;;;;;23.60;16.13;;;;;;;9.04;100.00;153680.88;5027524;28;20540;-80
2022/03/16 10:55:17;;;;;;;24.83;17.30;;;;;;;8.99;100.00;153669.25;5031695;28;20788;-80
2022/03/16 10:57:52;;;;;;;24.20;16.90;;;;;;;8.94;100.00;153656.34;5027301;28;20459;-80
2022/03/16 11:00:34;;;;;;;21.00;15.67;;;;;;;9.04;100.00;153680.88;5026439;28;20452;-82
2022/03/16 11:03:14;;;;;;;21.63;16.30;;;;;;;8.98;100.00;153666.66;5015524;28;20546;-81
2022/03/16 11:05:50;;;;;;;22.30;17.10;;;;;;;9.16;100.00;153711.91;5028155;28;20463;-82
2022/03/16 11:08:26;;;;;;;23.87;17.40;;;;;;;9.05;100.00;153683.50;5028145;28;20775;-80
2022/03/16 11:13:27;;;;;;;22.70;16.10;;;;;;;9.05;100.00;153683.50;5010505;28;21052;-80
2022/03/16 11:13:58;;;;;;;26.00;17.43;;;;;;;9.38;100.00;153768.84;5028543;28;20435;-80
2022/03/16 11:16:35;;;;;;;22.07;16.87;;;;;;;9.36;100.00;153763.66;5027712;28;20447;-80
2022/03/16 11:19:11;;;;;;;23.30;16.50;;;;;;;9.40;100.00;153774.00;5012654;28;20447;-80
2022/03/16 11:21:53;;;;;;;22.53;16.60;;;;;;;9.57;100.00;153818.00;5025091;28;20934;-80
2022/03/16 11:24:36;;;;;;;24.03;17.60;;;;;;;9.41;100.00;153776.59;5025637;28;20503;-80
2022/03/16 11:27:34;;;;;;;20.57;15.43;;;;;;;9.48;100.00;153794.69;5033821;28;20706;-80
2022/03/16 11:30:13;;;;;;;22.20;15.47;;;;;;;9.41;100.00;153775.31;5024562;28;20444;-80
2022/03/16 11:32:56;;;;;;;19.27;15.30;;;;;;;9.56;100.00;153814.09;5028458;28;20443;-80
2022/03/16 11:35:34;;;;;;;22.80;17.03;;;;;;;9.43;100.00;153781.75;5026391;28;20451;-80
2022/03/16 11:38:21;;;;;;;22.47;17.40;;;;;;;9.61;100.00;153827.06;5027797;28;20456;-79
2022/03/16 11:40:56;;;;;;;24.20;17.00;;;;;;;9.69;100.00;153849.03;5031937;28;20452;-80
2022/03/16 11:43:32;;;;;;;22.87;17.73;;;;;;;9.88;100.00;153896.91;5030396;28;20471;-79
2022/03/16 11:46:27;;;;;;;23.43;17.33;;;;;;;9.95;100.00;153913.75;5025353;28;20455;-80
2022/03/16 11:49:04;;;;;;;20.33;15.73;;;;;;;9.80;99.17;153876.22;5034333;28;20447;-79
2022/03/16 11:51:57;;;;;;;21.70;15.53;;;;;;;9.68;100.00;153846.47;5010267;28;20443;-80
2022/03/16 11:54:43;;;;;;;20.50;15.27;;;;;;;9.80;99.62;153877.50;5027564;28;20846;-80
2022/03/16 11:57:36;;;;;;;24.20;16.30;;;;;;;9.98;99.00;153922.78;5028699;28;20794;-80
2022/03/16 12:00:17;;;;;;;20.00;14.40;;;;;;;9.93;99.18;153908.59;5028756;28;20467;-80
2022/03/16 12:02:53;;;;;;;24.30;17.70;;;;;;;10.08;99.66;153947.41;5027899;28;20443;-80